Time;durP1;ratioP1;P1;durP2;ratioP2;P2;SDS_P1;SDS_P2;PMS_P1;PMS_P2;Temp;Humidity;BMP_temperature;BMP_pressure;BME280_temperature;BME280_humidity;BME280_pressure;Samples;Min_cycle;Max_cycle;Signal;HPM_P1;HPM_P2
2023/09/19 00:02:23;;;;;;;1.98;0.98;;;14.50;99.90;;;;;;5033334;28;20022;-74
2023/09/19 00:04:49;;;;;;;2.10;1.00;;;14.40;99.90;;;;;;5033406;28;20030;-73
2023/09/19 00:07:16;;;;;;;3.55;1.10;;;14.50;99.90;;;;;;5033766;28;20109;-73
2023/09/19 00:09:44;;;;;;;1.90;0.90;;;14.40;99.90;;;;;;5033203;28;20083;-74
2023/09/19 00:12:09;;;;;;;2.08;0.88;;;14.50;99.90;;;;;;5035334;28;20389;-74
2023/09/19 00:14:38;;;;;;;2.10;1.10;;;14.50;99.90;;;;;;5037441;28;20030;-74
2023/09/19 00:17:07;;;;;;;2.65;1.00;;;14.40;99.90;;;;;;5037387;28;20026;-74
2023/09/19 00:19:33;;;;;;;4.70;1.10;;;14.40;99.90;;;;;;5037126;28;20029;-74
2023/09/19 00:21:58;;;;;;;2.53;1.35;;;14.40;99.90;;;;;;5037190;28;20029;-74
2023/09/19 00:24:24;;;;;;;1.60;0.88;;;14.40;99.90;;;;;;5037053;28;20021;-74
2023/09/19 00:26:50;;;;;;;1.33;0.82;;;14.40;99.90;;;;;;5019320;28;20029;-74
2023/09/19 00:29:16;;;;;;;2.92;1.10;;;14.40;99.90;;;;;;5037049;28;20393;-74
2023/09/19 00:31:44;;;;;;;3.03;1.35;;;14.30;99.90;;;;;;5037008;28;20029;-74
2023/09/19 00:34:10;;;;;;;3.45;1.27;;;14.30;99.90;;;;;;5036938;28;20497;-74
2023/09/19 00:36:39;;;;;;;2.13;0.98;;;14.30;99.90;;;;;;5037115;28;20029;-74
2023/09/19 00:39:05;;;;;;;2.60;1.10;;;14.20;99.90;;;;;;5036721;28;20032;-74
2023/09/19 00:41:38;;;;;;;2.15;1.10;;;14.20;99.90;;;;;;5036785;28;20076;-73
2023/09/19 00:44:04;;;;;;;3.88;1.20;;;14.10;99.90;;;;;;5036728;28;20030;-73
2023/09/19 00:46:32;;;;;;;2.17;1.27;;;14.00;99.90;;;;;;5036461;28;20037;-74
2023/09/19 00:48:58;;;;;;;3.08;1.38;;;13.90;99.90;;;;;;5073247;22;20484;-80
2023/09/19 00:51:25;;;;;;;2.53;1.27;;;13.80;99.90;;;;;;5065561;28;20025;-79
2023/09/19 00:53:52;;;;;;;3.90;1.40;;;13.70;99.90;;;;;;5066397;28;20037;-79
2023/09/19 00:56:18;;;;;;;1.42;0.90;;;13.70;99.90;;;;;;5061568;28;20059;-79
2023/09/19 00:58:48;;;;;;;3.10;0.98;;;13.70;99.90;;;;;;5066110;28;20146;-78
2023/09/19 01:01:14;;;;;;;1.90;1.05;;;13.70;99.90;;;;;;5056254;28;20029;-78
2023/09/19 01:03:44;;;;;;;1.95;1.08;;;13.70;99.90;;;;;;5070391;28;20041;-79
2023/09/19 01:06:10;;;;;;;2.70;1.10;;;13.70;99.90;;;;;;5044109;28;20062;-79
2023/09/19 01:08:36;;;;;;;3.28;1.23;;;13.80;99.90;;;;;;5041121;28;20024;-78
2023/09/19 01:11:34;;;;;;;2.95;1.58;;;13.80;99.90;;;;;;5065656;28;20451;-76
2023/09/19 01:14:18;;;;;;;2.00;0.98;;;13.90;99.90;;;;;;5077092;28;20020;-79
2023/09/19 01:17:00;;;;;;;2.13;1.00;;;13.80;99.90;;;;;;5060251;28;20028;-79
2023/09/19 01:19:38;;;;;;;2.35;1.00;;;13.70;99.90;;;;;;5050683;28;20056;-79
2023/09/19 01:22:29;;;;;;;1.98;1.10;;;13.70;99.90;;;;;;5057444;28;20020;-78
2023/09/19 01:25:15;;;;;;;2.45;0.80;;;13.70;99.90;;;;;;5068342;28;20369;-79
2023/09/19 01:27:59;;;;;;;2.55;1.08;;;13.70;99.90;;;;;;5072604;28;20036;-78
2023/09/19 01:30:29;;;;;;;2.42;1.27;;;13.70;99.90;;;;;;5071450;28;20028;-79
2023/09/19 01:32:55;;;;;;;2.22;1.10;;;13.80;99.90;;;;;;5069433;28;20977;-79
2023/09/19 01:35:21;;;;;;;1.83;1.00;;;13.80;99.90;;;;;;5073824;28;20050;-79
2023/09/19 01:37:46;;;;;;;2.17;1.08;;;13.80;99.90;;;;;;5049941;28;20121;-79
2023/09/19 01:40:17;;;;;;;2.60;1.30;;;13.70;99.90;;;;;;5070456;28;20174;-79
2023/09/19 01:42:59;;;;;;;2.50;1.30;;;13.70;99.90;;;;;;5062319;28;20032;-79
2023/09/19 01:45:46;;;;;;;3.30;1.00;;;13.70;99.90;;;;;;5052223;28;20339;-78
2023/09/19 01:48:32;;;;;;;2.63;1.10;;;13.70;99.90;;;;;;5045595;28;20037;-79
2023/09/19 01:51:05;;;;;;;2.20;1.00;;;13.70;99.90;;;;;;5055676;28;20048;-79
2023/09/19 01:53:41;;;;;;;2.50;1.08;;;13.70;99.90;;;;;;5066642;28;20120;-79
2023/09/19 01:56:12;;;;;;;1.40;0.75;;;13.60;99.90;;;;;;5055239;28;20028;-79
2023/09/19 01:58:42;;;;;;;3.38;0.85;;;13.60;99.90;;;;;;5067934;28;20541;-79
2023/09/19 02:01:12;;;;;;;1.75;0.90;;;13.60;99.90;;;;;;5064279;28;20044;-79
2023/09/19 02:03:40;;;;;;;2.53;1.30;;;13.50;99.90;;;;;;5064282;28;20009;-79
2023/09/19 02:06:11;;;;;;;3.22;1.60;;;13.50;99.90;;;;;;5051204;28;20028;-79
2023/09/19 02:08:37;;;;;;;4.63;1.58;;;13.50;99.90;;;;;;5066025;28;20043;-79
2023/09/19 02:11:03;;;;;;;2.55;1.38;;;13.40;99.90;;;;;;5073138;28;20480;-80
2023/09/19 02:13:30;;;;;;;3.00;1.73;;;13.40;99.90;;;;;;5070420;28;20093;-79
2023/09/19 02:15:56;;;;;;;5.57;2.65;;;13.40;99.90;;;;;;5063594;28;20025;-79
2023/09/19 02:18:22;;;;;;;4.47;2.42;;;13.40;99.90;;;;;;5042925;28;20029;-79
2023/09/19 02:20:52;;;;;;;4.93;2.70;;;13.40;99.90;;;;;;5055717;28;20116;-77
2023/09/19 02:23:18;;;;;;;5.65;2.78;;;13.40;99.90;;;;;;5069401;28;20028;-76
2023/09/19 02:25:54;;;;;;;4.18;2.58;;;13.40;99.90;;;;;;5069438;28;20504;-79
2023/09/19 02:28:22;;;;;;;3.22;2.03;;;13.40;99.90;;;;;;5066542;28;20025;-79
2023/09/19 02:30:48;;;;;;;3.72;2.00;;;13.40;99.90;;;;;;5062998;28;20020;-79
2023/09/19 02:33:15;;;;;;;2.58;1.58;;;13.30;99.90;;;;;;5071682;28;20052;-79
2023/09/19 02:35:40;;;;;;;2.50;1.55;;;13.30;99.90;;;;;;5051890;28;20123;-78
2023/09/19 02:38:11;;;;;;;2.85;1.80;;;13.30;99.90;;;;;;5054408;28;20598;-77
2023/09/19 02:40:37;;;;;;;3.45;1.55;;;13.30;99.90;;;;;;5050393;28;20056;-78
2023/09/19 02:43:03;;;;;;;3.53;1.80;;;13.20;99.90;;;;;;5068031;28;20028;-79
2023/09/19 02:45:30;;;;;;;2.95;1.38;;;13.20;99.90;;;;;;5074424;28;20032;-78
2023/09/19 02:47:56;;;;;;;4.47;1.60;;;13.20;99.90;;;;;;5045735;28;20434;-76
2023/09/19 02:50:21;;;;;;;3.00;1.50;;;13.20;99.90;;;;;;5045971;28;20029;-78
2023/09/19 02:52:50;;;;;;;3.03;1.40;;;13.20;99.90;;;;;;5074265;28;20028;-79
2023/09/19 02:55:17;;;;;;;3.17;1.50;;;13.30;99.90;;;;;;5062140;28;20590;-78
2023/09/19 02:57:57;;;;;;;2.95;1.60;;;13.30;99.90;;;;;;5083509;27;20401;-76
2023/09/19 03:00:23;;;;;;;2.15;1.20;;;13.30;99.90;;;;;;5058144;28;20086;-76
2023/09/19 03:02:54;;;;;;;2.42;1.15;;;13.30;99.90;;;;;;5074802;28;20029;-76
2023/09/19 03:05:20;;;;;;;3.50;1.23;;;13.40;99.90;;;;;;5078261;28;20035;-75
2023/09/19 03:07:50;;;;;;;1.98;1.10;;;13.30;99.90;;;;;;5075758;28;20039;-76
2023/09/19 03:10:16;;;;;;;3.25;1.30;;;13.30;99.90;;;;;;5076543;28;20043;-76
2023/09/19 03:12:42;;;;;;;3.55;1.30;;;13.30;99.90;;;;;;5078218;28;20035;-76
2023/09/19 03:15:08;;;;;;;2.95;1.40;;;13.40;99.90;;;;;;5076673;28;20037;-76
2023/09/19 03:17:35;;;;;;;2.08;1.30;;;13.40;99.90;;;;;;5076425;28;20024;-74
2023/09/19 03:20:00;;;;;;;3.25;1.20;;;13.40;99.90;;;;;;5081432;28;20411;-76
2023/09/19 03:22:27;;;;;;;2.70;1.30;;;13.40;99.90;;;;;;5069128;28;20026;-76
2023/09/19 03:24:53;;;;;;;2.75;1.35;;;13.40;99.90;;;;;;5068246;28;20025;-76
2023/09/19 03:27:20;;;;;;;2.42;1.65;;;13.40;99.90;;;;;;5069052;28;20100;-76
2023/09/19 03:29:46;;;;;;;3.00;1.50;;;13.40;99.90;;;;;;5069008;28;20040;-76
2023/09/19 03:32:12;;;;;;;3.47;1.42;;;13.40;99.90;;;;;;5070073;28;20029;-76
2023/09/19 03:34:42;;;;;;;3.08;1.33;;;13.40;99.90;;;;;;5069075;28;20024;-76
2023/09/19 03:37:09;;;;;;;2.65;1.80;;;13.40;99.90;;;;;;5070318;28;20052;-76
2023/09/19 03:39:34;;;;;;;3.97;1.70;;;13.40;99.90;;;;;;5070179;28;20021;-76
2023/09/19 03:42:02;;;;;;;3.28;1.65;;;13.50;99.90;;;;;;5069617;28;20111;-75
2023/09/19 03:44:28;;;;;;;3.15;1.35;;;13.50;99.90;;;;;;5072304;28;20031;-76
2023/09/19 03:46:57;;;;;;;2.00;1.15;;;13.50;99.90;;;;;;5075271;28;20028;-76
2023/09/19 03:49:23;;;;;;;2.13;1.00;;;13.40;99.90;;;;;;5057415;28;20119;-76
2023/09/19 03:51:49;;;;;;;3.42;1.65;;;13.40;99.90;;;;;;5071810;28;20052;-74
2023/09/19 03:54:16;;;;;;;1.90;1.17;;;13.40;99.90;;;;;;5056808;28;20554;-76
2023/09/19 03:56:43;;;;;;;3.47;1.70;;;13.40;99.90;;;;;;5065057;28;20504;-76
2023/09/19 03:59:09;;;;;;;2.90;1.38;;;13.40;99.90;;;;;;5076861;28;20021;-77
2023/09/19 04:01:35;;;;;;;2.90;1.30;;;13.40;99.90;;;;;;5077003;28;20028;-76
2023/09/19 04:04:08;;;;;;;3.33;1.40;;;13.40;99.90;;;;;;5073988;28;20025;-76
2023/09/19 04:06:37;;;;;;;6.35;1.42;;;13.50;99.90;;;;;;5073326;28;20373;-76
2023/09/19 04:09:03;;;;;;;2.83;1.25;;;13.50;99.90;;;;;;5046445;28;20033;-76
2023/09/19 04:11:30;;;;;;;3.28;1.73;;;13.40;99.90;;;;;;5041953;28;20124;-76
2023/09/19 04:13:56;;;;;;;3.67;1.45;;;13.40;99.90;;;;;;5049163;28;20063;-76
2023/09/19 04:16:22;;;;;;;2.50;1.20;;;13.40;99.90;;;;;;5057752;28;20078;-76
2023/09/19 04:18:48;;;;;;;4.38;1.90;;;13.30;99.90;;;;;;5053087;28;20056;-76
2023/09/19 04:21:14;;;;;;;4.85;1.75;;;13.30;99.90;;;;;;5044061;28;20032;-76
2023/09/19 04:23:39;;;;;;;2.88;1.65;;;13.30;99.90;;;;;;5046214;28;20033;-76
2023/09/19 04:26:05;;;;;;;3.50;2.05;;;13.20;99.90;;;;;;5059236;28;20405;-75
2023/09/19 04:28:34;;;;;;;4.75;2.30;;;13.20;99.90;;;;;;5054949;28;20025;-76
2023/09/19 04:31:00;;;;;;;5.13;2.38;;;13.30;99.90;;;;;;5053279;28;20052;-75
2023/09/19 04:33:29;;;;;;;4.13;1.80;;;13.30;99.90;;;;;;5052784;28;20079;-75
2023/09/19 04:35:55;;;;;;;3.50;1.52;;;13.30;99.90;;;;;;5055103;28;20087;-76
2023/09/19 04:38:21;;;;;;;2.97;1.75;;;13.30;99.90;;;;;;5054052;28;20132;-76
2023/09/19 04:40:47;;;;;;;2.95;1.45;;;13.30;99.90;;;;;;5024497;28;20490;-76
2023/09/19 04:43:13;;;;;;;2.85;1.42;;;13.30;99.90;;;;;;5036844;28;20115;-74
2023/09/19 04:45:40;;;;;;;2.95;1.40;;;13.30;99.90;;;;;;5047334;28;20120;-76
2023/09/19 04:48:09;;;;;;;2.67;1.27;;;13.40;99.90;;;;;;5039979;28;20032;-76
2023/09/19 04:50:34;;;;;;;3.85;1.42;;;13.30;99.90;;;;;;5054767;28;20469;-77
2023/09/19 04:53:01;;;;;;;3.17;1.33;;;13.40;99.90;;;;;;5050094;28;20036;-77
2023/09/19 04:55:27;;;;;;;3.17;1.45;;;13.40;99.90;;;;;;5061214;28;20025;-77
2023/09/19 04:57:53;;;;;;;3.25;1.45;;;13.40;99.90;;;;;;5062145;28;20024;-77
2023/09/19 05:00:27;;;;;;;2.17;1.20;;;13.30;99.90;;;;;;5032387;28;20025;-77
2023/09/19 05:02:58;;;;;;;3.05;1.63;;;13.30;99.90;;;;;;5025304;28;20780;-77
2023/09/19 05:05:25;;;;;;;2.35;1.25;;;13.30;99.90;;;;;;5068778;28;20496;-77
2023/09/19 05:07:53;;;;;;;3.45;1.40;;;13.30;99.90;;;;;;5061314;28;20035;-77
2023/09/19 05:10:20;;;;;;;2.50;1.60;;;13.30;99.90;;;;;;5060611;28;20029;-77
2023/09/19 05:12:47;;;;;;;19.40;8.73;;;13.30;99.90;;;;;;5070741;28;20024;-76
2023/09/19 05:15:14;;;;;;;19.95;9.18;;;13.30;99.90;;;;;;5060701;28;20021;-77
2023/09/19 05:17:40;;;;;;;23.65;10.30;;;13.40;99.90;;;;;;5059736;28;20507;-76
2023/09/19 05:20:14;;;;;;;26.40;11.60;;;13.40;99.90;;;;;;5064181;28;20040;-77
2023/09/19 05:22:40;;;;;;;16.17;8.20;;;13.40;99.90;;;;;;5054880;28;20048;-76
2023/09/19 05:25:07;;;;;;;13.63;6.25;;;13.40;99.90;;;;;;5038343;28;20026;-76
2023/09/19 05:27:33;;;;;;;8.82;3.85;;;13.40;99.90;;;;;;5059357;28;20032;-76
2023/09/19 05:29:59;;;;;;;6.32;3.20;;;13.40;99.90;;;;;;5057050;28;20029;-76
2023/09/19 05:32:25;;;;;;;5.35;2.60;;;13.50;99.90;;;;;;5057401;28;20115;-77
2023/09/19 05:34:56;;;;;;;3.83;2.25;;;13.50;99.90;;;;;;5064297;28;20025;-77
2023/09/19 05:37:23;;;;;;;5.53;2.58;;;13.50;99.90;;;;;;5058165;28;20044;-77
2023/09/19 05:39:49;;;;;;;4.78;2.60;;;13.50;99.90;;;;;;5058646;28;20055;-77
2023/09/19 05:42:14;;;;;;;4.32;2.33;;;13.50;99.90;;;;;;5059262;28;20047;-80
2023/09/19 05:44:40;;;;;;;4.65;2.13;;;13.50;99.90;;;;;;5039706;28;20033;-78
2023/09/19 05:47:08;;;;;;;3.85;2.15;;;13.50;99.90;;;;;;5049289;28;20495;-78
2023/09/19 05:49:38;;;;;;;2.88;1.60;;;13.50;99.90;;;;;;5054994;28;20028;-78
2023/09/19 05:52:05;;;;;;;3.72;1.70;;;13.50;99.90;;;;;;5064038;28;20025;-78
2023/09/19 05:54:30;;;;;;;2.80;1.65;;;13.50;99.90;;;;;;5048750;28;20044;-78
2023/09/19 05:56:57;;;;;;;3.05;1.50;;;13.50;99.90;;;;;;5060246;28;20527;-78
2023/09/19 05:59:23;;;;;;;3.50;1.77;;;13.50;99.90;;;;;;5066354;28;20542;-79
2023/09/19 06:01:49;;;;;;;3.90;1.77;;;13.60;99.90;;;;;;5059976;28;20066;-77
2023/09/19 06:04:15;;;;;;;2.75;1.40;;;13.60;99.90;;;;;;5063381;28;20029;-78
2023/09/19 06:06:41;;;;;;;2.50;1.65;;;13.60;99.90;;;;;;5063864;28;20028;-78
2023/09/19 06:09:10;;;;;;;2.85;1.42;;;13.60;99.90;;;;;;5063371;28;20024;-78
2023/09/19 06:11:36;;;;;;;2.88;1.90;;;13.70;99.90;;;;;;5042536;28;20029;-78
2023/09/19 06:14:02;;;;;;;3.72;1.70;;;13.70;99.90;;;;;;5054734;28;20039;-79
2023/09/19 06:16:29;;;;;;;3.95;1.45;;;13.70;99.90;;;;;;5054843;28;20048;-79
2023/09/19 06:18:55;;;;;;;3.22;1.95;;;13.60;99.90;;;;;;5053100;28;20028;-78
2023/09/19 06:21:22;;;;;;;3.47;1.52;;;13.70;99.90;;;;;;5053477;28;20047;-79
2023/09/19 06:23:48;;;;;;;1.90;1.20;;;13.70;99.90;;;;;;5053643;28;20401;-79
2023/09/19 06:26:14;;;;;;;2.10;1.30;;;13.70;99.90;;;;;;5055245;28;20372;-79
2023/09/19 06:28:42;;;;;;;2.40;1.38;;;13.70;99.90;;;;;;5053884;28;20111;-78
2023/09/19 06:31:09;;;;;;;2.65;1.60;;;13.70;99.90;;;;;;5047766;28;20033;-78
2023/09/19 06:33:38;;;;;;;4.00;1.80;;;13.80;99.90;;;;;;5057556;28;20059;-78
2023/09/19 06:36:07;;;;;;;3.40;1.65;;;13.70;99.90;;;;;;5059716;28;20025;-78
2023/09/19 06:38:38;;;;;;;3.08;2.00;;;13.80;99.90;;;;;;5064216;28;20499;-79
2023/09/19 06:41:04;;;;;;;3.85;1.60;;;13.80;99.90;;;;;;5057515;28;20075;-79
2023/09/19 06:43:31;;;;;;;4.30;1.85;;;13.80;99.90;;;;;;5054859;28;20021;-79
2023/09/19 06:45:57;;;;;;;3.45;2.10;;;13.80;99.90;;;;;;5054274;28;20035;-78
2023/09/19 06:48:24;;;;;;;5.25;1.80;;;13.90;99.90;;;;;;5057192;28;20033;-78
2023/09/19 06:50:50;;;;;;;2.95;1.77;;;13.90;99.90;;;;;;5070716;28;20388;-79
2023/09/19 06:53:17;;;;;;;4.63;2.03;;;13.90;99.90;;;;;;5074667;28;20025;-79
2023/09/19 06:55:43;;;;;;;4.70;2.38;;;14.00;99.90;;;;;;5074184;28;20036;-79
2023/09/19 06:58:10;;;;;;;4.90;2.05;;;14.00;99.90;;;;;;5074894;28;20094;-79
2023/09/19 07:00:37;;;;;;;3.90;1.67;;;14.00;99.90;;;;;;5073109;28;20028;-79
2023/09/19 07:03:05;;;;;;;2.90;2.00;;;14.00;99.90;;;;;;5074812;28;20495;-77
2023/09/19 07:05:32;;;;;;;3.08;1.60;;;14.10;99.90;;;;;;5070324;28;20013;-78
2023/09/19 07:08:01;;;;;;;3.28;1.70;;;14.10;99.90;;;;;;5061376;28;20029;-78
2023/09/19 07:10:28;;;;;;;4.82;1.95;;;14.20;99.90;;;;;;5059788;28;20083;-78
2023/09/19 07:13:06;;;;;;;3.83;1.98;;;14.20;99.90;;;;;;5064036;28;20025;-77
2023/09/19 07:15:38;;;;;;;2.90;1.90;;;14.20;99.90;;;;;;5056857;28;20017;-77
2023/09/19 07:18:05;;;;;;;4.90;2.22;;;14.30;99.90;;;;;;5055817;28;20485;-77
2023/09/19 07:20:32;;;;;;;3.70;2.45;;;14.40;99.90;;;;;;5061227;28;20424;-78
2023/09/19 07:23:01;;;;;;;3.92;2.42;;;14.40;99.90;;;;;;5053763;28;20029;-78
2023/09/19 07:25:30;;;;;;;4.25;2.97;;;14.40;99.90;;;;;;5052643;28;20017;-78
2023/09/19 07:27:59;;;;;;;5.82;3.47;;;14.50;99.90;;;;;;5052837;28;20446;-78
2023/09/19 07:30:26;;;;;;;4.47;2.15;;;14.50;99.90;;;;;;5053520;28;20021;-78
2023/09/19 07:32:52;;;;;;;3.63;2.25;;;14.50;99.90;;;;;;5053693;28;20057;-78
2023/09/19 07:35:21;;;;;;;5.85;3.53;;;14.60;99.90;;;;;;5053221;28;20033;-78
2023/09/19 07:37:56;;;;;;;6.88;3.15;;;14.60;99.90;;;;;;5052326;28;20033;-78
2023/09/19 07:40:23;;;;;;;4.13;2.47;;;14.60;99.90;;;;;;5052764;28;20112;-78
2023/09/19 07:42:50;;;;;;;3.88;1.92;;;14.70;99.90;;;;;;5053072;28;20026;-78
2023/09/19 07:45:17;;;;;;;4.07;2.55;;;14.70;99.90;;;;;;5057293;28;20123;-78
2023/09/19 07:47:50;;;;;;;4.55;3.10;;;14.80;99.90;;;;;;5057362;28;20112;-78
2023/09/19 07:50:18;;;;;;;5.90;2.95;;;14.80;99.90;;;;;;5056953;28;20025;-78
2023/09/19 07:52:44;;;;;;;6.45;3.22;;;14.80;99.90;;;;;;5057030;28;20021;-78
2023/09/19 07:55:16;;;;;;;5.40;3.00;;;14.80;99.90;;;;;;5057248;28;20035;-78
2023/09/19 07:57:43;;;;;;;4.82;3.10;;;14.80;99.90;;;;;;5060538;28;20032;-77
2023/09/19 08:00:12;;;;;;;4.28;2.70;;;14.80;99.90;;;;;;5064866;28;20021;-77
2023/09/19 08:02:39;;;;;;;4.32;2.20;;;14.90;99.90;;;;;;5061706;28;20028;-77
2023/09/19 08:05:06;;;;;;;5.43;2.10;;;14.90;99.90;;;;;;5066657;28;20017;-77
2023/09/19 08:07:38;;;;;;;4.15;2.08;;;14.90;99.90;;;;;;5063609;28;20056;-77
2023/09/19 08:10:07;;;;;;;5.63;2.70;;;15.00;99.90;;;;;;5064251;28;20025;-78
2023/09/19 08:12:35;;;;;;;4.40;1.75;;;15.10;99.90;;;;;;5076729;28;20033;-78
2023/09/19 08:15:03;;;;;;;2.35;1.40;;;15.10;99.90;;;;;;5076884;28;20074;-78
2023/09/19 08:17:29;;;;;;;2.78;1.55;;;15.20;99.90;;;;;;5075001;28;20116;-78
2023/09/19 08:19:54;;;;;;;5.10;1.80;;;15.30;99.90;;;;;;5056191;28;20021;-78
2023/09/19 08:22:21;;;;;;;4.95;2.40;;;15.40;99.90;;;;;;5057396;28;20051;-79
2023/09/19 08:24:47;;;;;;;7.63;3.95;;;15.50;99.90;;;;;;5056872;28;20104;-79
2023/09/19 08:27:13;;;;;;;6.93;4.05;;;15.60;99.90;;;;;;5056350;28;20029;-79
2023/09/19 08:29:39;;;;;;;6.53;4.03;;;15.70;99.90;;;;;;5056334;28;20184;-79
2023/09/19 08:32:05;;;;;;;6.40;3.30;;;15.80;99.90;;;;;;5057233;28;20033;-79
2023/09/19 08:34:32;;;;;;;7.22;4.38;;;15.90;99.90;;;;;;5055417;28;20032;-79
2023/09/19 08:36:58;;;;;;;8.02;3.92;;;16.00;99.90;;;;;;5055894;28;20033;-79
2023/09/19 08:39:25;;;;;;;5.00;3.10;;;16.00;99.90;;;;;;5055578;28;20075;-79
2023/09/19 08:41:59;;;;;;;4.22;2.88;;;16.00;99.90;;;;;;5055444;28;20078;-79
2023/09/19 08:44:25;;;;;;;8.60;4.38;;;16.00;99.90;;;;;;5055479;28;20021;-79
2023/09/19 08:46:55;;;;;;;5.90;3.85;;;16.10;99.90;;;;;;5055710;28;20456;-79
2023/09/19 08:49:43;;;;;;;7.57;4.18;;;16.00;99.90;;;;;;5056136;28;20024;-79
2023/09/19 08:52:33;;;;;;;5.13;3.35;;;16.10;99.90;;;;;;5056263;28;20104;-79
2023/09/19 08:55:04;;;;;;;6.88;2.80;;;16.20;99.90;;;;;;5055452;28;20108;-79
2023/09/19 08:57:37;;;;;;;3.30;2.20;;;16.30;99.90;;;;;;5056554;28;20033;-79
2023/09/19 09:00:14;;;;;;;3.72;2.20;;;16.50;99.90;;;;;;5056218;28;20036;-79
2023/09/19 09:02:41;;;;;;;3.92;2.40;;;16.60;99.90;;;;;;5056377;28;20481;-79
2023/09/19 09:05:11;;;;;;;4.10;2.20;;;16.70;99.90;;;;;;5054636;28;20425;-79
2023/09/19 09:07:44;;;;;;;4.80;2.33;;;16.80;99.90;;;;;;5055270;28;20035;-79
2023/09/19 09:10:10;;;;;;;5.22;2.00;;;17.00;99.90;;;;;;5056785;28;20608;-79
2023/09/19 09:12:40;;;;;;;5.15;2.80;;;17.00;99.90;;;;;;5056239;28;20025;-79
2023/09/19 09:15:08;;;;;;;6.82;3.08;;;17.10;99.90;;;;;;5039089;28;20029;-79
2023/09/19 09:17:34;;;;;;;3.72;2.50;;;17.20;99.90;;;;;;5056121;28;20033;-79
2023/09/19 09:20:00;;;;;;;4.15;2.35;;;17.20;99.90;;;;;;5055709;28;20059;-79
2023/09/19 09:22:26;;;;;;;5.97;3.05;;;17.40;99.90;;;;;;5056562;28;20029;-79
2023/09/19 09:25:03;;;;;;;5.80;4.07;;;17.50;99.90;;;;;;5066477;28;20431;-78
2023/09/19 09:27:29;;;;;;;6.65;4.53;;;17.50;99.90;;;;;;5063806;28;20029;-79
2023/09/19 09:29:54;;;;;;;7.45;4.38;;;17.50;99.90;;;;;;5066313;28;20512;-79
2023/09/19 09:32:24;;;;;;;5.07;3.58;;;17.50;99.90;;;;;;5057234;28;20543;-79
2023/09/19 09:34:58;;;;;;;4.47;3.05;;;17.50;99.90;;;;;;5056773;28;20021;-79
2023/09/19 09:37:26;;;;;;;8.20;4.40;;;17.60;99.90;;;;;;5055731;28;20025;-79
2023/09/19 09:39:58;;;;;;;6.88;4.82;;;17.60;99.90;;;;;;5057195;28;20070;-79
2023/09/19 09:42:39;;;;;;;7.25;4.75;;;17.70;99.90;;;;;;5057358;28;20048;-79
2023/09/19 09:47:59;;;;;;;7.30;3.30;;;17.90;99.90;;;;;;5057383;28;20029;-79
2023/09/19 09:50:44;;;;;;;5.75;3.88;;;18.30;99.90;;;;;;5056031;28;20049;-79
2023/09/19 09:53:32;;;;;;;4.82;2.95;;;18.70;99.90;;;;;;5057298;28;20528;-79
2023/09/19 09:56:05;;;;;;;3.83;2.15;;;19.30;99.90;;;;;;5057446;28;20063;-79
2023/09/19 09:58:35;;;;;;;4.63;1.40;;;19.70;99.90;;;;;;5057500;28;20025;-79
2023/09/19 10:01:15;;;;;;;2.33;1.23;;;20.10;99.90;;;;;;5057275;28;20025;-79
2023/09/19 10:03:44;;;;;;;4.32;1.25;;;20.40;99.90;;;;;;5057496;28;20048;-79
2023/09/19 10:06:25;;;;;;;2.58;1.10;;;20.60;99.90;;;;;;5055449;28;20025;-79
2023/09/19 10:11:37;;;;;;;2.13;1.10;;;21.00;99.90;;;;;;5056872;28;20029;-79
2023/09/19 10:14:06;;;;;;;3.13;1.30;;;21.00;99.90;;;;;;5058033;28;20033;-79
2023/09/19 10:16:34;;;;;;;2.25;1.30;;;21.20;99.90;;;;;;5055747;28;20079;-79
2023/09/19 10:19:02;;;;;;;2.85;1.40;;;21.40;99.90;;;;;;5057176;28;20032;-79
2023/09/19 10:21:30;;;;;;;3.83;1.38;;;21.50;99.90;;;;;;5057362;28;20071;-79
2023/09/19 10:24:00;;;;;;;3.47;1.50;;;21.60;99.90;;;;;;5057879;28;20067;-79
2023/09/19 10:26:31;;;;;;;3.28;1.70;;;21.70;99.90;;;;;;5057059;28;20029;-79
2023/09/19 10:29:00;;;;;;;2.08;1.20;;;21.80;99.90;;;;;;5056601;28;20037;-78
2023/09/19 10:31:28;;;;;;;3.20;1.30;;;21.70;99.90;;;;;;5056988;28;20024;-79
2023/09/19 10:33:55;;;;;;;2.33;1.30;;;21.60;99.90;;;;;;5056890;28;20032;-79
2023/09/19 10:36:27;;;;;;;2.03;1.10;;;21.60;99.90;;;;;;5057090;28;20035;-79
2023/09/19 10:38:56;;;;;;;1.92;1.08;;;21.60;99.90;;;;;;5058025;28;20107;-79
2023/09/19 10:41:22;;;;;;;1.85;0.90;;;21.50;99.90;;;;;;5056462;28;20025;-79
2023/09/19 10:43:48;;;;;;;2.03;0.90;;;21.60;99.90;;;;;;5058042;28;20021;-79
2023/09/19 10:46:14;;;;;;;2.20;0.98;;;21.70;99.90;;;;;;5057939;28;20076;-79
2023/09/19 10:48:43;;;;;;;1.80;0.90;;;21.80;99.90;;;;;;5058158;28;20086;-79
2023/09/19 10:51:09;;;;;;;2.60;1.00;;;21.90;99.90;;;;;;5057780;28;20366;-79
2023/09/19 10:54:15;;;;;;;1.88;0.93;;;22.00;99.90;;;;;;5058359;28;20025;-79
2023/09/19 10:56:51;;;;;;;3.00;1.00;;;22.00;99.90;;;;;;5018622;28;20524;-80
2023/09/19 10:59:18;;;;;;;1.58;0.82;;;21.90;99.90;;;;;;5019404;28;20036;-79
2023/09/19 11:01:51;;;;;;;1.85;0.80;;;21.90;99.90;;;;;;5047918;28;20033;-79
2023/09/19 11:04:26;;;;;;;1.65;0.90;;;21.80;99.90;;;;;;5063480;28;20025;-79
2023/09/19 11:07:14;;;;;;;2.20;0.90;;;21.70;99.90;;;;;;5075817;28;20399;-81
2023/09/19 11:09:45;;;;;;;2.10;1.00;;;21.60;99.90;;;;;;5032375;28;20029;-81
2023/09/19 11:12:12;;;;;;;1.50;0.88;;;21.50;99.90;;;;;;5032294;28;20030;-81
2023/09/19 11:14:40;;;;;;;1.67;0.88;;;21.40;99.90;;;;;;5032594;28;20390;-81
2023/09/19 11:17:20;;;;;;;2.17;0.90;;;21.40;99.90;;;;;;5032358;28;20120;-81
2023/09/19 11:22:50;;;;;;;2.00;1.10;;;21.50;99.90;;;;;;5057930;28;20025;-81
2023/09/19 11:25:31;;;;;;;1.90;1.00;;;21.70;99.90;;;;;;5051301;28;20018;-81
2023/09/19 11:28:07;;;;;;;2.30;1.20;;;21.70;99.90;;;;;;5047452;28;20508;-81
2023/09/19 11:30:37;;;;;;;1.88;1.05;;;21.80;99.90;;;;;;5055315;28;20493;-81
2023/09/19 11:33:20;;;;;;;2.00;1.00;;;21.90;99.90;;;;;;5057156;28;20029;-81
2023/09/19 11:36:05;;;;;;;2.05;1.00;;;21.90;99.90;;;;;;5057311;28;20029;-79
2023/09/19 11:38:57;;;;;;;2.72;1.10;;;22.00;99.90;;;;;;5055098;28;20017;-78
2023/09/19 11:41:26;;;;;;;2.00;1.08;;;22.00;99.90;;;;;;5050962;28;20130;-78
2023/09/19 11:43:55;;;;;;;2.53;1.17;;;22.10;99.90;;;;;;5049707;28;20026;-79
2023/09/19 11:46:21;;;;;;;2.80;1.30;;;22.10;99.90;;;;;;5040785;28;20028;-79
2023/09/19 11:48:51;;;;;;;2.55;1.17;;;22.00;99.90;;;;;;5067331;28;20033;-79
2023/09/19 11:51:19;;;;;;;3.07;1.30;;;21.90;99.90;;;;;;5053067;28;20033;-78
2023/09/19 11:54:13;;;;;;;2.22;1.08;;;21.80;99.90;;;;;;5058206;28;20090;-78
2023/09/19 11:56:40;;;;;;;2.83;0.80;;;21.70;99.90;;;;;;5066909;28;20033;-78
2023/09/19 11:59:08;;;;;;;2.13;0.90;;;21.50;99.90;;;;;;5064109;28;20032;-78
2023/09/19 12:01:34;;;;;;;2.22;1.05;;;21.40;99.90;;;;;;5075796;28;20476;-78
2023/09/19 12:04:04;;;;;;;1.65;0.90;;;21.40;99.90;;;;;;5064381;28;20480;-78
2023/09/19 12:06:32;;;;;;;1.40;0.70;;;21.50;99.90;;;;;;5064135;28;20036;-78
2023/09/19 12:08:59;;;;;;;1.58;0.75;;;21.70;99.90;;;;;;5062448;28;20415;-78
2023/09/19 12:11:33;;;;;;;2.53;1.30;;;21.70;99.90;;;;;;5064445;28;20051;-78
2023/09/19 12:14:00;;;;;;;1.88;0.70;;;21.80;99.90;;;;;;5065429;28;20024;-78
2023/09/19 12:16:30;;;;;;;2.72;0.70;;;21.70;99.90;;;;;;5064255;28;20021;-77
2023/09/19 12:18:57;;;;;;;2.10;0.75;;;21.60;99.90;;;;;;5063252;28;20021;-77
2023/09/19 12:21:31;;;;;;;1.27;0.73;;;21.40;99.90;;;;;;5077333;28;20475;-78
2023/09/19 12:24:06;;;;;;;2.38;0.70;;;21.30;99.90;;;;;;5077675;28;20044;-78
2023/09/19 12:26:43;;;;;;;3.08;0.98;;;21.30;99.90;;;;;;5076075;28;20388;-78
2023/09/19 12:29:14;;;;;;;1.33;0.70;;;21.30;99.90;;;;;;5075979;28;20083;-78
2023/09/19 12:31:59;;;;;;;1.80;0.70;;;21.40;99.90;;;;;;5077002;28;20052;-77
2023/09/19 12:34:34;;;;;;;1.15;0.60;;;21.60;99.90;;;;;;5078362;28;20028;-78
2023/09/19 12:37:27;;;;;;;1.30;0.60;;;21.70;99.90;;;;;;5061789;28;20484;-78
2023/09/19 12:39:54;;;;;;;2.75;0.73;;;21.70;99.90;;;;;;5060046;28;20504;-78
2023/09/19 12:42:28;;;;;;;2.17;0.93;;;21.80;99.90;;;;;;5062599;28;20489;-78
2023/09/19 12:44:57;;;;;;;2.65;0.80;;;22.00;99.90;;;;;;5068299;28;20108;-78
2023/09/19 12:47:24;;;;;;;1.42;0.65;;;22.10;99.90;;;;;;5058718;28;20025;-77
2023/09/19 12:50:18;;;;;;;1.52;0.77;;;22.10;99.90;;;;;;5053926;28;20499;-77
2023/09/19 12:52:48;;;;;;;2.47;0.50;;;22.20;99.90;;;;;;5070941;28;20032;-78
2023/09/19 12:55:33;;;;;;;2.03;0.55;;;22.30;99.90;;;;;;5061613;28;20032;-78
2023/09/19 12:58:11;;;;;;;2.83;0.80;;;22.50;99.90;;;;;;5060496;28;20037;-78
2023/09/19 13:00:45;;;;;;;1.27;0.50;;;22.60;99.90;;;;;;5067628;28;20043;-78
2023/09/19 13:03:18;;;;;;;1.05;0.55;;;22.70;99.90;;;;;;5054038;28;20013;-80
2023/09/19 13:05:47;;;;;;;1.92;0.70;;;22.70;99.90;;;;;;5057241;28;20500;-80
2023/09/19 13:08:26;;;;;;;1.42;0.52;;;22.70;99.90;;;;;;5057585;28;20504;-80